createdAt,value
2016-06-01T00:00:34.038Z,88.1
2016-06-01T00:01:34.025Z,88.49
2016-06-01T00:02:33.856Z,88.68
2016-06-01T00:03:33.828Z,89.36
2016-06-01T00:04:33.971Z,89.83
2016-06-01T00:05:33.942Z,89.5
2016-06-01T00:06:33.929Z,90.17
2016-06-01T00:07:33.916Z,91.28
2016-06-01T00:08:34.075Z,90.99
2016-06-01T00:09:33.890Z,90.66
2016-06-01T00:10:33.884Z,91.13
2016-06-01T00:11:33.881Z,91.52
2016-06-01T00:12:33.894Z,91.42
2016-06-01T00:13:33.893Z,91.81
2016-06-01T00:14:33.905Z,92.19
2016-06-01T00:15:33.905Z,92.86
2016-06-01T00:16:33.885Z,92.38
2016-06-01T00:17:33.882Z,92.38
2016-06-01T00:18:33.879Z,93.54
2016-06-01T00:19:33.860Z,93.63
2016-06-01T00:20:33.852Z,93.34
2016-06-01T00:21:33.842Z,93.92
2016-06-01T00:22:33.833Z,94.78
2016-06-01T00:23:34.307Z,94.78
2016-06-01T00:24:34.174Z,95.26
2016-06-01T00:25:33.786Z,95.75
2016-06-01T00:26:33.759Z,96.32
2016-06-01T00:27:33.732Z,96.75
2016-06-01T00:28:33.720Z,96.94
2016-06-01T00:29:33.708Z,97.33
2016-06-01T00:30:33.540Z,97.52
2016-06-01T00:31:33.668Z,98.29
2016-06-01T00:32:33.499Z,98
2016-06-01T00:33:33.627Z,98
2016-06-01T00:34:33.630Z,98.38
2016-06-01T00:35:33.601Z,98.19
2016-06-01T00:36:33.589Z,98.48
2016-06-01T00:37:33.561Z,98.86
2016-06-01T00:38:33.625Z,99.15
2016-06-01T00:39:33.597Z,98.96
2016-06-01T00:40:33.506Z,98.19
2016-06-01T00:41:33.493Z,99.25
2016-06-01T00:42:33.464Z,99.63
2016-06-01T00:43:33.452Z,99.15
2016-06-01T00:44:33.438Z,98.77
2016-06-01T00:45:33.410Z,99.15
2016-06-01T00:46:33.397Z,99.63
2016-06-01T00:47:33.383Z,99.44
2016-06-01T00:48:33.355Z,99.44
2016-06-01T00:49:33.343Z,99.34
2016-06-01T00:50:33.314Z,99.34
2016-06-01T00:51:33.301Z,99.82
2016-06-01T00:52:33.288Z,99.99
2016-06-01T00:53:33.260Z,99.99
2016-06-01T00:54:33.246Z,99.99
2016-06-01T00:55:33.218Z,99.99
2016-06-01T00:56:33.049Z,99.99
2016-06-01T00:57:33.176Z,99.99
2016-06-01T00:58:33.163Z,99.99
2016-06-01T00:59:33.151Z,99.99
2016-06-01T01:00:33.122Z,99.99
2016-06-01T01:01:33.109Z,99.99
2016-06-01T01:02:33.096Z,99.99
2016-06-01T01:03:33.068Z,99.99
2016-06-01T01:04:33.039Z,99.99
2016-06-01T01:05:33.026Z,99.99
2016-06-01T01:06:33.013Z,99.99
2016-06-01T01:07:32.984Z,99.99
2016-06-01T01:08:33.144Z,99.99
2016-06-01T01:09:33.256Z,99.99
2016-06-01T01:10:32.930Z,99.99
2016-06-01T01:11:32.917Z,99.99
2016-06-01T01:12:32.905Z,99.99
2016-06-01T01:13:32.875Z,99.99
2016-06-01T01:14:32.863Z,99.99
2016-06-01T01:15:32.850Z,99.99
2016-06-01T01:16:32.822Z,99.99
2016-06-01T01:17:32.808Z,99.99
2016-06-01T01:18:32.796Z,99.99
2016-06-01T01:19:32.766Z,99.99
2016-06-01T01:20:32.754Z,99.99
2016-06-01T01:21:32.725Z,99.99
2016-06-01T01:22:32.713Z,99.99
2016-06-01T01:23:32.699Z,99.99
2016-06-01T01:24:33.030Z,99.99
2016-06-01T01:25:32.643Z,99.99
2016-06-01T01:26:32.629Z,99.99
2016-06-01T01:27:32.601Z,99.99
2016-06-01T01:28:32.588Z,99.99
2016-06-01T01:29:32.576Z,99.99
2016-06-01T01:30:32.562Z,99.99
2016-06-01T01:31:32.533Z,99.99
2016-06-01T01:32:32.520Z,99.99
2016-06-01T01:33:32.507Z,99.99
2016-06-01T01:34:32.479Z,99.99
2016-06-01T01:35:32.466Z,99.99
2016-06-01T01:36:32.453Z,99.99
2016-06-01T01:37:32.425Z,99.99
2016-06-01T01:38:32.412Z,99.99
2016-06-01T01:39:32.398Z,99.99
2016-06-01T01:40:32.355Z,99.99
2016-06-01T01:41:32.341Z,99.99
2016-06-01T01:42:32.328Z,99.99
2016-06-01T01:43:32.175Z,99.99
2016-06-01T01:44:32.287Z,99.99
2016-06-01T01:45:32.274Z,99.99
2016-06-01T01:46:32.261Z,99.99
2016-06-01T01:47:32.233Z,99.99
2016-06-01T01:48:32.220Z,99.99
2016-06-01T01:49:32.191Z,99.99
2016-06-01T01:50:32.178Z,99.99
2016-06-01T01:51:32.150Z,99.99
2016-06-01T01:52:32.137Z,99.99
2016-06-01T01:53:31.968Z,99.99
2016-06-01T01:54:32.360Z,99.99
2016-06-01T01:55:31.926Z,99.99
2016-06-01T01:56:32.054Z,99.99
2016-06-01T01:57:32.041Z,99.99
2016-06-01T01:58:32.012Z,99.99
2016-06-01T01:59:31.843Z,99.99
2016-06-01T02:00:31.987Z,99.99
2016-06-01T02:01:31.957Z,99.99
2016-06-01T02:02:31.945Z,99.99
2016-06-01T02:03:31.916Z,99.99
2016-06-01T02:04:31.904Z,99.99
2016-06-01T02:05:31.890Z,99.99
2016-06-01T02:06:31.862Z,99.99
2016-06-01T02:07:31.849Z,99.99
2016-06-01T02:08:32.320Z,99.99
2016-06-01T02:09:31.807Z,99.99
2016-06-01T02:10:31.779Z,99.99
2016-06-01T02:11:31.766Z,99.99
2016-06-01T02:12:31.753Z,99.99
2016-06-01T02:13:31.740Z,99.99
2016-06-01T02:14:31.555Z,99.99
2016-06-01T02:15:31.683Z,99.99
2016-06-01T02:16:31.670Z,99.99
2016-06-01T02:17:31.658Z,99.99
2016-06-01T02:18:31.628Z,99.99
2016-06-01T02:19:31.616Z,99.99
2016-06-01T02:20:31.587Z,99.99
2016-06-01T02:21:31.574Z,99.99
2016-06-01T02:22:31.546Z,99.99
2016-06-01T02:23:31.563Z,99.99
2016-06-01T02:24:31.536Z,99.99
2016-06-01T02:25:31.507Z,99.99
2016-06-01T02:26:31.478Z,99.99
2016-06-01T02:27:31.465Z,99.99
2016-06-01T02:28:31.437Z,99.99
2016-06-01T02:29:31.423Z,99.99
2016-06-01T02:30:31.411Z,99.99
2016-06-01T02:31:31.383Z,99.99
2016-06-01T02:32:31.353Z,99.99
2016-06-01T02:33:31.341Z,99.99
2016-06-01T02:34:31.312Z,99.99
2016-06-01T02:35:31.315Z,99.99
2016-06-01T02:36:31.271Z,99.99
2016-06-01T02:37:31.258Z,99.99
2016-06-01T02:38:31.244Z,99.99
2016-06-01T02:39:31.216Z,99.99
2016-06-01T02:40:31.203Z,99.99
2016-06-01T02:41:31.175Z,99.99
2016-06-01T02:42:31.147Z,99.99
2016-06-01T02:43:31.150Z,99.99
2016-06-01T02:44:31.120Z,99.99
2016-06-01T02:45:31.091Z,99.99
2016-06-01T02:46:31.078Z,99.99
2016-06-01T02:47:31.050Z,99.99
2016-06-01T02:48:30.881Z,99.99
2016-06-01T02:49:31.072Z,99.99
2016-06-01T02:50:31.121Z,99.99
2016-06-01T02:51:30.826Z,99.99
2016-06-01T02:52:30.969Z,99.99
2016-06-01T02:53:31.270Z,99.99
2016-06-01T02:54:31.007Z,99.99
2016-06-01T02:55:30.963Z,99.99
2016-06-01T02:56:30.950Z,99.99
2016-06-01T02:57:30.858Z,99.99
2016-06-01T02:58:30.689Z,99.99
2016-06-01T02:59:30.818Z,99.99
2016-06-01T03:00:30.804Z,99.99
2016-06-01T03:01:30.791Z,99.99
2016-06-01T03:02:30.763Z,99.99
2016-06-01T03:03:30.749Z,99.99
2016-06-01T03:04:30.736Z,99.99
2016-06-01T03:05:30.709Z,99.99
2016-06-01T03:06:30.695Z,99.99
2016-06-01T03:07:30.667Z,99.99
2016-06-01T03:08:30.888Z,99.99
2016-06-01T03:09:30.719Z,99.99
2016-06-01T03:10:30.612Z,99.99
2016-06-01T03:11:30.442Z,99.99
2016-06-01T03:12:30.571Z,99.99
2016-06-01T03:13:30.558Z,99.99
2016-06-01T03:14:30.545Z,99.99
2016-06-01T03:15:30.531Z,99.99
2016-06-01T03:16:30.503Z,99.99
2016-06-01T03:17:30.475Z,99.99
2016-06-01T03:18:30.306Z,99.99
2016-06-01T03:19:30.433Z,99.99
2016-06-01T03:20:30.420Z,99.99
2016-06-01T03:21:30.408Z,99.99
2016-06-01T03:22:30.379Z,99.99
2016-06-01T03:23:31.335Z,99.99
2016-06-01T03:24:30.603Z,99.99
2016-06-01T03:25:30.184Z,99.99
2016-06-01T03:26:30.311Z,99.99
2016-06-01T03:27:30.283Z,99.99
2016-06-01T03:28:30.271Z,99.99
2016-06-01T03:29:30.241Z,99.99
2016-06-01T03:30:30.229Z,99.99
2016-06-01T03:31:30.044Z,99.99
2016-06-01T03:32:30.188Z,99.99
2016-06-01T03:33:30.174Z,99.99
2016-06-01T03:34:29.989Z,99.99
2016-06-01T03:35:30.132Z,99.99
2016-06-01T03:36:30.120Z,99.99
2016-06-01T03:37:30.091Z,99.99
2016-06-01T03:38:30.688Z,99.99
2016-06-01T03:39:30.065Z,99.99
2016-06-01T03:40:30.036Z,99.99
2016-06-01T03:41:30.008Z,99.99
2016-06-01T03:42:29.995Z,99.99
2016-06-01T03:43:29.982Z,99.99
2016-06-01T03:44:29.970Z,99.99
2016-06-01T03:45:29.942Z,99.99
2016-06-01T03:46:29.771Z,99.99
2016-06-01T03:47:29.914Z,99.99
2016-06-01T03:48:29.886Z,99.99
2016-06-01T03:49:29.858Z,99.99
2016-06-01T03:50:29.844Z,99.99
2016-06-01T03:51:29.833Z,99.99
2016-06-01T03:52:29.662Z,99.99
2016-06-01T03:53:29.791Z,99.99
2016-06-01T03:54:29.794Z,99.99
2016-06-01T03:55:29.749Z,99.99
2016-06-01T03:56:29.721Z,99.99
2016-06-01T03:57:29.708Z,99.99
2016-06-01T03:58:29.694Z,99.99
2016-06-01T03:59:29.666Z,99.99
2016-06-01T04:00:29.496Z,99.99
2016-06-01T04:01:29.640Z,99.99
2016-06-01T04:02:29.612Z,99.99
2016-06-01T04:03:29.599Z,99.99
2016-06-01T04:04:29.586Z,99.99
2016-06-01T04:05:29.556Z,99.99
2016-06-01T04:06:29.544Z,99.99
2016-06-01T04:07:29.516Z,99.99
2016-06-01T04:08:31.096Z,99.99
2016-06-01T04:09:29.349Z,99.99
2016-06-01T04:10:29.462Z,99.99
2016-06-01T04:11:29.448Z,99.99
2016-06-01T04:12:29.435Z,99.99
2016-06-01T04:13:29.423Z,99.99
2016-06-01T04:14:29.394Z,99.99
2016-06-01T04:15:29.225Z,99.99
2016-06-01T04:16:29.196Z,99.99
2016-06-01T04:17:29.339Z,99.99
2016-06-01T04:18:29.311Z,99.99
2016-06-01T04:19:29.141Z,99.99
2016-06-01T04:20:29.129Z,99.99
2016-06-01T04:21:29.100Z,99.99
2016-06-01T04:22:29.244Z,99.99
2016-06-01T04:23:29.074Z,99.99
2016-06-01T04:24:29.311Z,99.99
2016-06-01T04:25:29.188Z,99.99
2016-06-01T04:26:29.161Z,99.99
2016-06-01T04:27:29.147Z,99.99
2016-06-01T04:28:29.135Z,99.99
2016-06-01T04:29:29.105Z,99.99
2016-06-01T04:30:29.109Z,99.99
2016-06-01T04:31:29.079Z,99.99
2016-06-01T04:32:29.052Z,99.99
2016-06-01T04:33:29.038Z,99.99
2016-06-01T04:34:29.010Z,99.99
2016-06-01T04:35:28.997Z,99.99
2016-06-01T04:36:28.984Z,99.99
2016-06-01T04:37:28.799Z,99.99
2016-06-01T04:38:28.943Z,99.99
2016-06-01T04:39:28.946Z,99.99
2016-06-01T04:40:28.745Z,99.99
2016-06-01T04:41:28.888Z,99.99
2016-06-01T04:42:28.890Z,99.99
2016-06-01T04:43:28.862Z,99.99
2016-06-01T04:44:28.834Z,99.99
2016-06-01T04:45:28.820Z,99.99
2016-06-01T04:46:28.792Z,99.99
2016-06-01T04:47:28.623Z,99.99
2016-06-01T04:48:28.766Z,99.99
2016-06-01T04:49:28.754Z,99.99
2016-06-01T04:50:28.741Z,99.99
2016-06-01T04:51:28.696Z,99.99
2016-06-01T04:52:28.684Z,99.99
2016-06-01T04:53:28.686Z,99.99
2016-06-01T04:54:29.344Z,99.99
2016-06-01T04:55:28.630Z,99.99
2016-06-01T04:56:28.616Z,99.99
2016-06-01T04:57:28.588Z,99.99
2016-06-01T04:58:28.574Z,99.99
2016-06-01T04:59:28.562Z,99.99
2016-06-01T05:00:28.533Z,99.99
2016-06-01T05:01:28.364Z,99.99
2016-06-01T05:02:28.491Z,99.99
2016-06-01T05:03:28.479Z,99.99
2016-06-01T05:04:28.466Z,99.99
2016-06-01T05:05:28.452Z,99.99
2016-06-01T05:06:28.424Z,99.99
2016-06-01T05:07:28.412Z,99.99
2016-06-01T05:08:28.586Z,99.99
2016-06-01T05:09:28.574Z,99.99
2016-06-01T05:10:28.357Z,99.99
2016-06-01T05:11:28.343Z,99.99
2016-06-01T05:12:28.315Z,99.99
2016-06-01T05:13:28.303Z,99.99
2016-06-01T05:14:28.273Z,99.99
2016-06-01T05:15:28.261Z,99.99
2016-06-01T05:16:28.248Z,99.99
2016-06-01T05:17:28.220Z,99.99
2016-06-01T05:18:28.206Z,99.99
2016-06-01T05:19:28.178Z,99.99
2016-06-01T05:20:28.181Z,99.99
2016-06-01T05:21:28.153Z,99.99
2016-06-01T05:22:28.139Z,99.99
2016-06-01T05:23:28.375Z,99.99
2016-06-01T05:24:28.051Z,99.99
2016-06-01T05:25:28.085Z,99.99
2016-06-01T05:26:28.056Z,99.99
2016-06-01T05:27:28.044Z,99.99
2016-06-01T05:28:28.030Z,99.99
2016-06-01T05:29:28.002Z,99.99
2016-06-01T05:30:27.989Z,99.99
2016-06-01T05:31:27.960Z,99.99
2016-06-01T05:32:27.947Z,99.99
2016-06-01T05:33:27.935Z,99.99
2016-06-01T05:34:27.905Z,99.99
2016-06-01T05:35:27.893Z,99.99
2016-06-01T05:36:27.880Z,99.99
2016-06-01T05:37:27.868Z,99.99
2016-06-01T05:38:27.854Z,99.99
2016-06-01T05:39:27.669Z,99.99
2016-06-01T05:40:27.812Z,99.99
2016-06-01T05:41:27.784Z,99.99
2016-06-01T05:42:27.631Z,99.99
2016-06-01T05:43:27.742Z,99.99
2016-06-01T05:44:27.729Z,99.99
2016-06-01T05:45:27.717Z,99.99
2016-06-01T05:46:27.688Z,99.99
2016-06-01T05:47:27.690Z,99.99
2016-06-01T05:48:27.662Z,99.99
2016-06-01T05:49:27.634Z,99.99
2016-06-01T05:50:27.621Z,99.99
2016-06-01T05:51:27.608Z,99.99
2016-06-01T05:52:27.595Z,99.99
2016-06-01T05:53:27.566Z,99.99
2016-06-01T05:54:27.584Z,99.99
2016-06-01T05:55:27.541Z,99.99
2016-06-01T05:56:27.512Z,99.99
2016-06-01T05:57:27.499Z,99.99
2016-06-01T05:58:27.486Z,99.99
2016-06-01T05:59:27.458Z,99.99
2016-06-01T06:00:27.305Z,99.99
2016-06-01T06:01:27.432Z,99.99
2016-06-01T06:02:27.419Z,99.99
2016-06-01T06:03:27.391Z,99.99
2016-06-01T06:04:27.377Z,99.99
2016-06-01T06:05:27.363Z,99.99
2016-06-01T06:06:27.335Z,99.99
2016-06-01T06:07:27.166Z,99.99
2016-06-01T06:08:27.294Z,99.99
2016-06-01T06:09:27.281Z,99.99
2016-06-01T06:10:27.268Z,99.99
2016-06-01T06:11:27.240Z,99.99
2016-06-01T06:12:27.227Z,99.99
2016-06-01T06:13:27.215Z,99.99
2016-06-01T06:14:27.185Z,99.99
2016-06-01T06:15:27.172Z,99.99
2016-06-01T06:16:27.143Z,99.99
2016-06-01T06:17:27.131Z,99.99
2016-06-01T06:18:26.961Z,99.99
2016-06-01T06:19:27.105Z,99.99
2016-06-01T06:20:27.076Z,99.99
2016-06-01T06:21:26.906Z,99.99
2016-06-01T06:22:27.050Z,99.99
2016-06-01T06:23:27.038Z,99.99
2016-06-01T06:24:27.025Z,99.99
2016-06-01T06:25:26.997Z,99.99
2016-06-01T06:26:26.967Z,99.99
2016-06-01T06:27:26.955Z,99.99
2016-06-01T06:28:26.941Z,99.99
2016-06-01T06:29:26.914Z,99.99
2016-06-01T06:30:26.916Z,99.99
2016-06-01T06:31:26.887Z,99.99
2016-06-01T06:32:26.858Z,99.99
2016-06-01T06:33:26.846Z,99.99
2016-06-01T06:34:26.833Z,99.99
2016-06-01T06:35:26.820Z,99.99
2016-06-01T06:36:26.791Z,99.99
2016-06-01T06:37:26.779Z,99.99
2016-06-01T06:38:26.765Z,99.99
2016-06-01T06:39:26.737Z,99.99
2016-06-01T06:40:26.724Z,99.99
2016-06-01T06:41:26.711Z,99.99
2016-06-01T06:42:26.699Z,99.99
2016-06-01T06:43:26.670Z,99.99
2016-06-01T06:44:26.657Z,99.99
2016-06-01T06:45:26.643Z,99.99
2016-06-01T06:46:26.615Z,99.99
2016-06-01T06:47:26.602Z,99.99
2016-06-01T06:48:26.589Z,99.99
2016-06-01T06:49:26.404Z,99.99
2016-06-01T06:50:26.392Z,99.99
2016-06-01T06:51:26.535Z,99.99
2016-06-01T06:52:26.506Z,99.99
2016-06-01T06:53:26.492Z,99.99
2016-06-01T06:54:26.480Z,99.99
2016-06-01T06:55:26.467Z,99.99
2016-06-01T06:56:26.439Z,99.99
2016-06-01T06:57:26.426Z,99.99
2016-06-01T06:58:26.414Z,99.99
2016-06-01T06:59:26.400Z,99.99
2016-06-01T07:00:26.386Z,99.99
2016-06-01T07:01:26.358Z,99.99
2016-06-01T07:02:26.330Z,99.99
2016-06-01T07:03:26.161Z,99.99
2016-06-01T07:04:26.148Z,99.99
2016-06-01T07:05:26.292Z,99.99
2016-06-01T07:06:26.107Z,99.99
2016-06-01T07:07:26.249Z,99.99
2016-06-01T07:08:26.081Z,99.99
2016-06-01T07:09:26.240Z,99.99
2016-06-01T07:10:26.196Z,99.93
2016-06-01T07:11:26.026Z,99.99
2016-06-01T07:12:26.169Z,99.64
2016-06-01T07:13:26.157Z,99.16
2016-06-01T07:14:26.143Z,99.35
2016-06-01T07:15:26.115Z,98.77
2016-06-01T07:16:26.086Z,99.06
2016-06-01T07:17:26.074Z,98.29
2016-06-01T07:18:26.060Z,97.91
2016-06-01T07:19:26.048Z,97.81
2016-06-01T07:20:26.020Z,98
2016-06-01T07:21:26.006Z,97.09
2016-06-01T07:22:25.837Z,97.28
2016-06-01T07:23:25.980Z,97.38
2016-06-01T07:24:25.811Z,96.8
2016-06-01T07:25:25.954Z,96.89
2016-06-01T07:26:25.926Z,96.7
2016-06-01T07:27:25.913Z,96.32
2016-06-01T07:28:25.900Z,96.12
2016-06-01T07:29:25.872Z,96.12
2016-06-01T07:30:25.858Z,96.32
2016-06-01T07:31:25.845Z,96.7
2016-06-01T07:32:25.817Z,96.32
2016-06-01T07:33:25.664Z,96.7
2016-06-01T07:34:25.791Z,96.8
2016-06-01T07:35:25.778Z,96.8
2016-06-01T07:36:25.766Z,96.99
2016-06-01T07:37:25.768Z,96.89
2016-06-01T07:38:25.582Z,96.61
2016-06-01T07:39:25.866Z,96.42
2016-06-01T07:40:25.729Z,96.32
2016-06-01T07:41:25.669Z,96.61
2016-06-01T07:42:25.657Z,96.75
2016-06-01T07:43:25.644Z,95.98
2016-06-01T07:44:25.630Z,95.84
2016-06-01T07:45:25.617Z,96.22
2016-06-01T07:46:25.604Z,96.03
2016-06-01T07:47:25.576Z,96.08
2016-06-01T07:48:25.563Z,95.79
2016-06-01T07:49:25.535Z,95.59
2016-06-01T07:50:25.521Z,95.4
2016-06-01T07:51:25.509Z,95.5
2016-06-01T07:52:25.480Z,95.79
2016-06-01T07:53:25.483Z,95.59
2016-06-01T07:54:25.470Z,95.69
2016-06-01T07:55:25.285Z,96.66
2016-06-01T07:56:25.459Z,95.94
2016-06-01T07:57:25.415Z,96.12
2016-06-01T07:58:25.387Z,96.17
2016-06-01T07:59:25.374Z,96.22
2016-06-01T08:00:25.362Z,96.22
2016-06-01T08:01:25.347Z,96.22
2016-06-01T08:02:25.350Z,95.94
2016-06-01T08:03:25.306Z,96.22
2016-06-01T08:04:25.278Z,96.17
2016-06-01T08:05:25.265Z,95.84
2016-06-01T08:06:25.268Z,96.03
2016-06-01T08:07:25.239Z,97.04
2016-06-01T08:08:25.227Z,96.22
2016-06-01T08:09:25.229Z,96.46
2016-06-01T08:10:25.185Z,95.4
2016-06-01T08:11:25.171Z,95.21
2016-06-01T08:12:25.159Z,95.98
2016-06-01T08:13:25.146Z,96.17
2016-06-01T08:14:25.118Z,95.79
2016-06-01T08:15:25.105Z,95.79
2016-06-01T08:16:25.091Z,95.79
2016-06-01T08:17:25.079Z,96.27
2016-06-01T08:18:25.050Z,95.89
2016-06-01T08:19:25.037Z,96.27
2016-06-01T08:20:25.024Z,96.12
2016-06-01T08:21:25.012Z,96.27
2016-06-01T08:22:24.983Z,96.27
2016-06-01T08:23:24.970Z,96.27
2016-06-01T08:24:25.034Z,96.32
2016-06-01T08:25:24.945Z,95.74
2016-06-01T08:26:24.931Z,96.51
2016-06-01T08:27:24.903Z,96.7
2016-06-01T08:28:24.889Z,96.61
2016-06-01T08:29:24.876Z,97.09
2016-06-01T08:30:24.864Z,96.8
2016-06-01T08:31:24.836Z,96.61
2016-06-01T08:32:24.838Z,96.99
2016-06-01T08:33:24.808Z,96.7
2016-06-01T08:34:24.797Z,96.8
2016-06-01T08:35:24.627Z,96.61
2016-06-01T08:36:24.755Z,96.99
2016-06-01T08:37:24.742Z,95.98
2016-06-01T08:38:24.572Z,95.69
2016-06-01T08:39:25.294Z,95.59
2016-06-01T08:40:24.688Z,95.98
2016-06-01T08:41:24.674Z,96.17
2016-06-01T08:42:24.505Z,95.59
2016-06-01T08:43:24.649Z,96.08
2016-06-01T08:44:24.636Z,96.27
2016-06-01T08:45:24.607Z,96.37
2016-06-01T08:46:24.594Z,96.56
2016-06-01T08:47:24.566Z,97.62
2016-06-01T08:48:24.553Z,96.46
2016-06-01T08:49:24.540Z,96.27
2016-06-01T08:50:24.526Z,95.5
2016-06-01T08:51:24.514Z,94.82
2016-06-01T08:52:24.485Z,94.92
2016-06-01T08:53:24.473Z,95.16
2016-06-01T08:54:24.476Z,94.87
2016-06-01T08:55:24.446Z,94.87
2016-06-01T08:56:24.434Z,94.87
2016-06-01T08:57:24.421Z,95.93
2016-06-01T08:58:24.392Z,95.93
2016-06-01T08:59:24.378Z,94.29
2016-06-01T09:00:24.367Z,94
2016-06-01T09:01:24.353Z,94.2
2016-06-01T09:02:24.325Z,93.71
2016-06-01T09:03:24.312Z,92.94
2016-06-01T09:04:24.299Z,92.36
2016-06-01T09:05:24.286Z,92.17
2016-06-01T09:06:24.101Z,92.36
2016-06-01T09:07:24.244Z,92.12
2016-06-01T09:08:24.231Z,91.88
2016-06-01T09:09:24.233Z,92.22
2016-06-01T09:10:24.190Z,91.54
2016-06-01T09:11:24.177Z,91.93
2016-06-01T09:12:24.164Z,90.87
2016-06-01T09:13:24.167Z,90.91
2016-06-01T09:14:24.138Z,91.01
2016-06-01T09:15:24.126Z,90.33
2016-06-01T09:16:24.138Z,88.64
2016-06-01T09:17:24.134Z,88.73
2016-06-01T09:18:24.144Z,88.83
2016-06-01T09:19:24.172Z,87.13
2016-06-01T09:20:24.166Z,86.75
2016-06-01T09:21:24.162Z,87.71
2016-06-01T09:22:24.156Z,87.91
2016-06-01T09:23:24.137Z,84.86
2016-06-01T09:24:24.148Z,84.72
2016-06-01T09:25:24.128Z,84.91
2016-06-01T09:26:24.118Z,85.21
2016-06-01T09:27:24.093Z,85.25
2016-06-01T09:28:24.082Z,84.09
2016-06-01T09:29:24.073Z,85.15
2016-06-01T09:30:23.923Z,83.12
2016-06-01T09:31:24.051Z,83.51
2016-06-01T09:32:24.056Z,83.99
2016-06-01T09:33:24.028Z,82.73
2016-06-01T09:34:24.016Z,81.77
2016-06-01T09:35:24.004Z,81.77
2016-06-01T09:36:23.991Z,82.06
2016-06-01T09:37:23.979Z,82.29
2016-06-01T09:38:23.794Z,81.81
2016-06-01T09:39:24.079Z,81.42
2016-06-01T09:40:23.925Z,80.46
2016-06-01T09:41:23.914Z,79.68
2016-06-01T09:42:23.901Z,79.58
2016-06-01T09:43:23.887Z,79.74
2016-06-01T09:44:23.875Z,79.97
2016-06-01T09:45:23.847Z,80.61
2016-06-01T09:46:23.850Z,81.96
2016-06-01T09:47:23.821Z,82.73
2016-06-01T09:48:23.824Z,82.93
2016-06-01T09:49:23.795Z,81.87
2016-06-01T09:50:23.782Z,81.44
2016-06-01T09:51:23.785Z,82.4
2016-06-01T09:52:23.757Z,82.65
2016-06-01T09:53:23.603Z,83.42
2016-06-01T09:54:23.746Z,83.62
2016-06-01T09:55:23.718Z,84.39
2016-06-01T09:56:23.705Z,84.78
2016-06-01T09:57:23.676Z,84.78
2016-06-01T09:58:23.663Z,84.88
2016-06-01T09:59:23.650Z,84.58
2016-06-01T10:00:23.638Z,84.58
2016-06-01T10:01:23.625Z,85.3
2016-06-01T10:02:23.597Z,85.06
2016-06-01T10:03:23.599Z,85.64
2016-06-01T10:04:23.429Z,85.69
2016-06-01T10:05:23.558Z,85.21
2016-06-01T10:06:23.544Z,85.26
2016-06-01T10:07:23.532Z,84.2
2016-06-01T10:08:23.518Z,85.16
2016-06-01T10:09:23.505Z,85.26
2016-06-01T10:10:23.493Z,85.26
2016-06-01T10:11:23.308Z,86.03
2016-06-01T10:12:23.467Z,84.97
2016-06-01T10:13:23.438Z,85.06
2016-06-01T10:14:23.425Z,85.45
2016-06-01T10:15:23.413Z,85.36
2016-06-01T10:16:23.384Z,84.88
2016-06-01T10:17:23.370Z,85.55
2016-06-01T10:18:23.357Z,85.16
2016-06-01T10:19:23.345Z,82.75
2016-06-01T10:20:23.332Z,84
2016-06-01T10:21:23.319Z,84.48
2016-06-01T10:22:23.306Z,85.11
2016-06-01T10:23:23.293Z,83.47
2016-06-01T10:24:23.421Z,83.47
2016-06-01T10:25:23.909Z,83.41
2016-06-01T10:26:23.239Z,82.06
2016-06-01T10:27:23.225Z,82.06
2016-06-01T10:28:23.213Z,80.32
2016-06-01T10:29:23.200Z,80.99
2016-06-01T10:30:23.187Z,82.15
2016-06-01T10:31:23.174Z,82.15
2016-06-01T10:32:23.161Z,79.25
2016-06-01T10:33:23.148Z,79.1
2016-06-01T10:34:23.136Z,79.87
2016-06-01T10:35:23.107Z,78.66
2016-06-01T10:36:23.110Z,77.3
2016-06-01T10:37:23.080Z,76.53
2016-06-01T10:38:23.069Z,77.2
2016-06-01T10:39:23.289Z,76.82
2016-06-01T10:40:23.041Z,76.82
2016-06-01T10:41:23.030Z,76.62
2016-06-01T10:42:23.016Z,76.53
2016-06-01T10:43:23.004Z,76.53
2016-06-01T10:44:22.990Z,77.36
2016-06-01T10:45:22.977Z,77.55
2016-06-01T10:46:22.964Z,79.29
2016-06-01T10:47:22.811Z,80.26
2016-06-01T10:48:22.923Z,79.93
2016-06-01T10:49:22.926Z,81.09
2016-06-01T10:50:22.898Z,81.19
2016-06-01T10:51:22.885Z,81.34
2016-06-01T10:52:22.731Z,80.22
2016-06-01T10:53:22.873Z,80.32
2016-06-01T10:54:23.517Z,81.48
2016-06-01T10:55:22.864Z,81.96
2016-06-01T10:56:22.835Z,81.48
2016-06-01T10:57:22.791Z,83.37
2016-06-01T10:58:22.794Z,82.02
2016-06-01T10:59:22.625Z,84.24
2016-06-01T11:00:22.753Z,84.39
2016-06-01T11:01:22.756Z,85.26
2016-06-01T11:02:22.757Z,84.97
2016-06-01T11:03:22.713Z,86.32
2016-06-01T11:04:22.700Z,86.66
2016-06-01T11:05:22.688Z,86.9
2016-06-01T11:06:22.658Z,87.58
2016-06-01T11:07:22.661Z,87.67
2016-06-01T11:08:22.649Z,87.82
2016-06-01T11:09:22.902Z,88.11
2016-06-01T11:10:22.607Z,88.69
2016-06-01T11:11:22.594Z,88.59
2016-06-01T11:12:22.581Z,88.98
2016-06-01T11:13:22.568Z,88.98
2016-06-01T11:14:22.555Z,89.27
2016-06-01T11:15:22.527Z,88.98
2016-06-01T11:16:22.513Z,88.4
2016-06-01T11:17:22.516Z,87.44
2016-06-01T11:18:22.519Z,87.73
2016-06-01T11:19:22.476Z,88.21
2016-06-01T11:20:22.462Z,89.37
2016-06-01T11:21:22.434Z,89.85
2016-06-01T11:22:22.420Z,88.89
2016-06-01T11:23:22.407Z,89.47
2016-06-01T11:24:23.270Z,89.65
2016-06-01T11:25:22.992Z,89.37
2016-06-01T11:26:22.369Z,89.27
2016-06-01T11:27:22.340Z,89.99
2016-06-01T11:28:22.343Z,87.67
2016-06-01T11:29:22.331Z,86.46
2016-06-01T11:30:22.301Z,86.94
2016-06-01T11:31:22.288Z,86.46
2016-06-01T11:32:22.275Z,87.43
2016-06-01T11:33:22.263Z,85.3
2016-06-01T11:34:22.250Z,84.95
2016-06-01T11:35:22.222Z,84.57
2016-06-01T11:36:22.209Z,84.86
2016-06-01T11:37:22.211Z,84.28
2016-06-01T11:38:22.042Z,84.09
2016-06-01T11:39:22.170Z,83.99
2016-06-01T11:40:22.172Z,84.19
2016-06-01T11:41:21.987Z,84.28
2016-06-01T11:42:22.130Z,84.57
2016-06-01T11:43:22.118Z,84.43
2016-06-01T11:44:22.105Z,84.86
2016-06-01T11:45:21.936Z,85.93
2016-06-01T11:46:22.063Z,85.35
2016-06-01T11:47:22.066Z,84.19
2016-06-01T11:48:22.038Z,84.95
2016-06-01T11:49:22.040Z,84.95
2016-06-01T11:50:22.012Z,85.35
2016-06-01T11:51:22.015Z,84.86
2016-06-01T11:52:22.001Z,84.71
2016-06-01T11:53:21.973Z,84.77
2016-06-01T11:54:21.959Z,84.95
2016-06-01T11:55:22.822Z,83.45
2016-06-01T11:56:21.950Z,82.78
2016-06-01T11:57:21.921Z,82.33
2016-06-01T11:58:21.908Z,81.65
2016-06-01T11:59:21.895Z,80.69
2016-06-01T12:00:21.882Z,81.65
2016-06-01T12:01:21.854Z,81.65
2016-06-01T12:02:21.684Z,81.75
2016-06-01T12:03:21.828Z,81.02
2016-06-01T12:04:21.815Z,80.73
2016-06-01T12:05:21.803Z,80.63
2016-06-01T12:06:21.788Z,79.9
2016-06-01T12:07:21.776Z,78.83
2016-06-01T12:08:21.764Z,77.28
2016-06-01T12:09:22.094Z,78.48
2016-06-01T12:10:21.737Z,77.8
2016-06-01T12:11:21.725Z,77.22
2016-06-01T12:12:21.711Z,77.42
2016-06-01T12:13:21.699Z,79.25
2016-06-01T12:14:21.686Z,78.87
2016-06-01T12:15:21.688Z,77.61
2016-06-01T12:16:21.660Z,78.87
2016-06-01T12:17:21.646Z,79.88
2016-06-01T12:18:21.634Z,77.51
2016-06-01T12:19:21.621Z,76.64
2016-06-01T12:20:21.592Z,75.96
2016-06-01T12:21:21.595Z,76.64
2016-06-01T12:22:21.582Z,77.76
2016-06-01T12:23:21.413Z,76.51
2016-06-01T12:24:21.556Z,76.99
2016-06-01T12:25:21.543Z,76.51
2016-06-01T12:26:21.421Z,77.47
2016-06-01T12:27:21.517Z,77.57
2016-06-01T12:28:21.505Z,77.09
2016-06-01T12:29:21.492Z,77.57
2016-06-01T12:30:21.322Z,76.51
2016-06-01T12:31:21.451Z,76.51
2016-06-01T12:32:21.437Z,75.67
2016-06-01T12:33:21.439Z,74.02
2016-06-01T12:34:21.427Z,72.86
2016-06-01T12:35:21.414Z,72.8
2016-06-01T12:36:21.244Z,72.99
2016-06-01T12:37:21.373Z,72.41
2016-06-01T12:38:21.375Z,71.93
2016-06-01T12:39:21.362Z,72.12
2016-06-01T12:40:21.647Z,72.41
2016-06-01T12:41:21.336Z,73.09
2016-06-01T12:42:21.167Z,72.89
2016-06-01T12:43:21.436Z,72.89
2016-06-01T12:44:21.141Z,73.05
2016-06-01T12:45:21.284Z,73.73
2016-06-01T12:46:21.272Z,75.57
2016-06-01T12:47:21.258Z,77.51
2016-06-01T12:48:21.230Z,76.54
2016-06-01T12:49:21.233Z,75.28
2016-06-01T12:50:21.204Z,75.77
2016-06-01T12:51:21.035Z,75.73
2016-06-01T12:52:21.179Z,75.44
2016-06-01T12:53:21.166Z,76.21
2016-06-01T12:54:21.168Z,76.21